createdAt,value
2023-05-11T01:13:54.735Z,27.8
2023-05-11T01:19:31.736Z,27.8
2023-05-11T01:25:07.411Z,27.8
2023-05-11T01:30:58.804Z,27.8
2023-05-11T01:36:53.275Z,27.8
2023-05-11T01:42:44.101Z,27.8
2023-05-11T01:48:36.314Z,27.8
2023-05-11T01:54:12.502Z,27.8
2023-05-11T02:00:03.646Z,27.8
2023-05-11T02:05:55.956Z,27.8
2023-05-11T02:11:47.808Z,27.8
2023-05-11T02:17:39.751Z,27.8
2023-05-11T02:23:31.459Z,27.7
2023-05-11T02:29:07.777Z,27.7
2023-05-11T02:34:59.923Z,27.7
2023-05-11T02:40:52.245Z,27.7
2023-05-11T02:46:44.063Z,27.7
2023-05-11T02:52:36.456Z,27.7
2023-05-11T02:58:28.142Z,27.7
2023-05-11T03:04:22.892Z,27.6
2023-05-11T03:10:15.741Z,27.7
2023-05-11T03:16:07.571Z,27.6
2023-05-11T03:22:00.186Z,27.6
2023-05-11T03:27:51.551Z,27.6
2023-05-11T03:33:46.634Z,27.6
2023-05-11T03:39:38.067Z,27.6
2023-05-11T03:45:31.271Z,27.6
2023-05-11T03:51:23.836Z,27.6
2023-05-11T03:57:15.358Z,27.6
2023-05-11T04:03:07.411Z,27.6
2023-05-11T04:09:00.217Z,27.6
2023-05-11T04:14:51.594Z,27.6
2023-05-11T04:20:43.622Z,27.6
2023-05-11T04:26:35.504Z,27.6
2023-05-11T04:32:27.135Z,27.6
2023-05-11T04:38:18.033Z,27.6
2023-05-11T04:44:09.924Z,27.6
2023-05-11T04:50:01.838Z,27.5
2023-05-11T04:55:38.512Z,27.5
2023-05-11T05:01:14.757Z,27.5
2023-05-11T05:06:53.590Z,27.5
2023-05-11T05:12:29.029Z,27.5
2023-05-11T05:18:20.159Z,27.5
2023-05-11T05:24:12.366Z,27.4
2023-05-11T05:30:03.610Z,27.4
2023-05-11T05:35:40.649Z,27.4
2023-05-11T05:41:17.060Z,27.4
2023-05-11T05:47:10.829Z,27.4
2023-05-11T05:53:01.947Z,27.4
2023-05-11T05:58:55.635Z,27.4
2023-05-11T06:04:51.347Z,27.4
2023-05-11T06:16:37.630Z,27.4
2023-05-11T06:22:29.289Z,27.4
2023-05-11T06:28:23.887Z,27.4
2023-05-11T06:33:45.492Z,27.4
2023-05-11T06:39:21.997Z,27.4
2023-05-11T06:45:14.107Z,27.3
2023-05-11T06:51:10.254Z,27.3
2023-05-11T06:57:01.765Z,27.3
2023-05-11T07:02:53.471Z,27.3
2023-05-11T07:08:45.832Z,27.3
2023-05-11T07:14:38.405Z,27.3
2023-05-11T07:20:15.345Z,27.3
2023-05-11T07:25:36.166Z,27.3
2023-05-11T07:31:13.531Z,27.3
2023-05-11T07:36:50.520Z,27.3
2023-05-11T07:42:45.458Z,27.2
2023-05-11T07:48:40.267Z,27.2
2023-05-11T07:54:47.494Z,27.2
2023-05-11T08:00:40.414Z,27.2
2023-05-11T08:06:33.557Z,27.2
2023-05-11T08:12:12.599Z,27.1
2023-05-11T08:18:04.842Z,27.1
2023-05-11T08:23:59.277Z,27.1
2023-05-11T08:29:36.289Z,27.1
2023-05-11T08:35:27.216Z,27.1
2023-05-11T08:41:20.556Z,27.1
2023-05-11T08:47:30.802Z,27.1
2023-05-11T08:53:22.969Z,27.1
2023-05-11T08:59:15.539Z,27.1
2023-05-11T09:05:08.142Z,27.1
2023-05-11T09:10:46.945Z,27.1
2023-05-11T09:17:01.719Z,27.1
2023-05-11T09:22:38.521Z,27
2023-05-11T09:28:15.938Z,27
2023-05-11T09:34:07.305Z,27
2023-05-11T09:40:25.465Z,27
2023-05-11T09:46:07.551Z,27
2023-05-11T09:52:06.176Z,27
2023-05-11T09:57:42.267Z,27
2023-05-11T10:03:18.894Z,26.9
2023-05-11T10:09:11.691Z,26.9
2023-05-11T10:15:07.191Z,26.9
2023-05-11T10:20:44.652Z,26.9
2023-05-11T10:26:38.240Z,26.9
2023-05-11T10:32:30.325Z,26.9
2023-05-11T10:38:21.794Z,26.9
2023-05-11T10:44:13.939Z,26.9
2023-05-11T10:50:09.123Z,26.9
2023-05-11T10:56:03.469Z,26.9
2023-05-11T11:01:56.328Z,26.8
2023-05-11T11:07:47.984Z,26.8
2023-05-11T11:13:40.325Z,26.8
2023-05-11T11:19:33.302Z,26.8
2023-05-11T11:25:24.121Z,26.8
2023-05-11T11:31:15.356Z,26.8
2023-05-11T11:37:06.900Z,26.8
2023-05-11T11:43:20.183Z,26.8
2023-05-11T11:49:13.980Z,26.8
2023-05-11T11:55:06.358Z,26.8
2023-05-11T12:00:59.272Z,26.8
2023-05-11T12:06:52.719Z,26.8
2023-05-11T12:12:44.999Z,26.7
2023-05-11T12:18:36.540Z,26.7
2023-05-11T12:24:28.009Z,26.7
2023-05-11T12:30:20.095Z,26.7
2023-05-11T12:36:11.774Z,26.7
2023-05-11T12:42:03.031Z,26.7
2023-05-11T12:47:54.626Z,26.6
2023-05-11T12:53:46.063Z,26.6
2023-05-11T12:59:37.714Z,26.6
2023-05-11T13:05:14.546Z,26.6
2023-05-11T13:11:06.132Z,26.6
2023-05-11T13:17:00.787Z,26.6
2023-05-11T13:22:53.065Z,26.6
2023-05-11T13:28:52.483Z,26.6
2023-05-11T13:34:34.873Z,26.6
2023-05-11T13:40:26.186Z,26.6
2023-05-11T13:46:17.937Z,26.6
2023-05-11T13:52:13.140Z,26.5
2023-05-11T13:58:04.953Z,26.5
2023-05-11T14:04:14.563Z,26.5
2023-05-11T14:10:21.628Z,26.5
2023-05-11T14:16:14.125Z,26.5
2023-05-11T14:22:08.190Z,26.5
2023-05-11T14:28:08.128Z,26.5
2023-05-11T14:34:02.948Z,26.4
2023-05-11T14:39:55.958Z,26.4
2023-05-11T14:45:48.176Z,26.4
2023-05-11T14:51:40.239Z,26.4
2023-05-11T14:57:32.505Z,26.4
2023-05-11T15:03:39.904Z,26.4
2023-05-11T15:09:47.842Z,26.4
2023-05-11T15:15:39.902Z,26.4
2023-05-11T15:21:33.351Z,26.3
2023-05-11T15:27:25.925Z,26.3
2023-05-11T15:33:21.264Z,26.2
2023-05-11T15:39:29.704Z,26.2
2023-05-11T15:45:23.093Z,26.1
2023-05-11T15:51:02.660Z,26.1
2023-05-11T15:56:55.475Z,26.1
2023-05-11T16:02:50.516Z,26
2023-05-11T16:08:44.855Z,26
2023-05-11T16:14:39.441Z,25.9
2023-05-11T16:20:37.146Z,25.9
2023-05-11T16:26:32.077Z,25.9
2023-05-11T16:32:41.842Z,25.9
2023-05-11T16:38:39.011Z,25.9
2023-05-11T16:44:32.855Z,25.9
2023-05-11T16:50:30.478Z,25.9
2023-05-11T16:56:30.566Z,25.9
2023-05-11T17:02:33.805Z,25.8
2023-05-11T17:08:33.965Z,25.8
2023-05-11T17:14:34.499Z,25.8
2023-05-11T17:20:35.607Z,25.8
2023-05-11T17:26:46.890Z,25.8
2023-05-11T17:33:18.809Z,25.8
2023-05-11T17:39:30.642Z,25.8
2023-05-11T17:45:32.633Z,25.8
2023-05-11T17:51:34.055Z,25.8
2023-05-11T17:57:34.921Z,25.8
2023-05-11T18:03:36.814Z,25.8
2023-05-11T18:09:52.063Z,25.8
2023-05-11T18:15:54.091Z,25.8
2023-05-11T18:21:41.288Z,25.8
2023-05-11T18:27:41.164Z,25.8
2023-05-11T18:39:27.334Z,25.7
2023-05-11T18:45:28.152Z,25.7
2023-05-11T18:51:31.233Z,25.7
2023-05-11T18:57:47.274Z,25.6
2023-05-11T19:04:00.346Z,25.6
2023-05-11T19:10:02.351Z,25.6
2023-05-11T19:16:04.807Z,25.5
2023-05-11T19:22:09.038Z,25.5
2023-05-11T19:28:19.363Z,25.5
2023-05-11T19:34:20.953Z,25.4
2023-05-11T19:41:00.573Z,25.4
2023-05-11T19:47:14.758Z,25.4
2023-05-11T19:53:19.221Z,25.4
2023-05-11T20:03:18.019Z,25.3
2023-05-11T20:09:22.355Z,25.3
2023-05-11T20:15:23.233Z,25.3
2023-05-11T20:21:24.791Z,25.3
2023-05-11T20:27:25.874Z,25.3
2023-05-11T20:39:39.973Z,25.2
2023-05-11T20:45:39.912Z,25.2
2023-05-11T20:52:00.204Z,25.2
2023-05-11T20:58:00.588Z,25.2
2023-05-11T21:04:08.657Z,25.2
2023-05-11T21:10:06.899Z,25.2
2023-05-11T21:16:04.815Z,25.1
2023-05-11T21:22:02.810Z,25.1
2023-05-11T21:27:42.427Z,25.1
2023-05-11T21:33:20.897Z,25.1
2023-05-11T21:38:43.725Z,25.1
2023-05-11T21:44:20.600Z,25.1
2023-05-11T21:49:40.670Z,25.1
2023-05-11T21:55:16.974Z,25.1
2023-05-11T22:00:54.049Z,25.1
2023-05-11T22:06:30.958Z,25.1
2023-05-11T22:12:14.946Z,25.1
2023-05-11T22:17:50.822Z,25.1
2023-05-11T22:23:26.844Z,25.1
2023-05-11T22:29:03.209Z,25.1
2023-05-11T22:34:39.500Z,25.1
2023-05-11T22:40:00.131Z,25.1
2023-05-11T22:45:21.420Z,25.1
2023-05-11T22:50:42.339Z,25.1
2023-05-11T22:56:02.783Z,25
2023-05-11T23:01:09.270Z,25.1
2023-05-11T23:06:31.073Z,25
2023-05-11T23:12:06.679Z,25
2023-05-11T23:17:27.525Z,25
2023-05-11T23:22:49.071Z,25
2023-05-11T23:27:53.900Z,25
2023-05-11T23:33:15.552Z,24.9
2023-05-11T23:38:36.840Z,25
2023-05-11T23:43:57.749Z,24.9
2023-05-11T23:49:34.666Z,24.9
2023-05-11T23:54:55.614Z,24.9
